Byfield, Massachusetts
Current Conditions -  °F | °C
As of 2:54 AM on Sunday 23 Nov 2014 (Local Time) from KLWM Reporting Station
Broken Clouds Broken Clouds  
Wind Chill: 36°   Ceiling: 11000
Heat Index: 42°   Visibility: 10mi
Dew Point: 23°   Wind: 10mph
Humidity: 47%   Direction: 230°SW
Pressure: 30.07"   Gusts: NA
Location:  42.76°N, 70.95°W
Report Text: KLWM 230754Z AUTO 23009KT 10SM FEW090 BKN110 06/M05 A3007 RMK AO2 SLP182 T00561050
Loading
Personal Weather Stations






























Interactive Weather Map New forecast layout! Learn more

10-Day Weather Forecast

Advertisements
Track Severe Weather on mobile